createdAt,value
2019-03-18T00:01:28.319Z,2.07
2019-03-18T00:03:33.373Z,1.30
2019-03-18T00:05:38.791Z,2.97
2019-03-18T00:07:44.313Z,1.63
2019-03-18T00:09:49.482Z,1.70
2019-03-18T00:11:55.100Z,1.60
2019-03-18T00:14:00.566Z,1.50
2019-03-18T00:16:05.967Z,2.70
2019-03-18T00:18:11.788Z,2.67
2019-03-18T00:20:17.145Z,1.60
2019-03-18T00:22:22.675Z,1.70
2019-03-18T00:24:27.600Z,1.93
2019-03-18T00:26:32.752Z,1.73
2019-03-18T00:28:38.043Z,1.70
2019-03-18T00:30:42.944Z,2.00
2019-03-18T00:32:48.118Z,1.70
2019-03-18T00:34:53.004Z,3.00
2019-03-18T00:36:58.155Z,1.97
2019-03-18T00:39:03.466Z,2.57
2019-03-18T00:41:08.710Z,3.63
2019-03-18T00:43:13.603Z,3.20
2019-03-18T00:45:18.848Z,2.87
2019-03-18T00:47:24.121Z,2.40
2019-03-18T00:49:29.313Z,2.53
2019-03-18T00:51:34.533Z,3.17
2019-03-18T00:53:39.706Z,3.20
2019-03-18T00:55:44.974Z,3.43
2019-03-18T00:57:50.308Z,5.73
2019-03-18T00:59:55.253Z,4.20
2019-03-18T01:02:00.809Z,5.40
2019-03-18T01:04:06.099Z,3.50
2019-03-18T01:06:11.363Z,4.00
2019-03-18T01:08:16.641Z,6.00
2019-03-18T01:10:21.996Z,4.70
2019-03-18T01:12:26.885Z,3.47
2019-03-18T01:14:32.355Z,4.60
2019-03-18T01:16:38.100Z,5.83
2019-03-18T01:18:43.000Z,4.50
2019-03-18T01:20:48.556Z,3.97
2019-03-18T01:22:54.182Z,3.93
2019-03-18T01:24:59.682Z,5.63
2019-03-18T01:27:04.976Z,3.43
2019-03-18T01:29:10.471Z,3.90
2019-03-18T01:31:15.441Z,6.67
2019-03-18T01:33:20.663Z,4.23
2019-03-18T01:35:26.110Z,3.97
2019-03-18T01:37:31.010Z,3.63
2019-03-18T01:39:36.327Z,3.50
2019-03-18T01:41:41.624Z,4.40
2019-03-18T01:43:47.266Z,3.60
2019-03-18T01:45:52.722Z,4.23
2019-03-18T01:47:58.282Z,3.70
2019-03-18T01:50:03.900Z,3.37
2019-03-18T01:52:09.104Z,2.87
2019-03-18T01:54:14.285Z,7.47
2019-03-18T01:56:19.839Z,4.50
2019-03-18T01:58:25.598Z,4.47
2019-03-18T02:00:32.082Z,4.17
2019-03-18T02:02:38.537Z,3.70
2019-03-18T02:04:45.804Z,3.60
2019-03-18T02:06:52.402Z,3.77
2019-03-18T02:08:57.724Z,3.83
2019-03-18T02:11:03.223Z,6.03
2019-03-18T02:13:08.383Z,3.57
2019-03-18T02:15:13.891Z,4.30
2019-03-18T02:17:19.094Z,4.43
2019-03-18T02:19:24.279Z,4.33
2019-03-18T02:21:29.395Z,4.83
2019-03-18T02:23:34.549Z,2.90
2019-03-18T02:25:40.349Z,3.23
2019-03-18T02:27:45.575Z,5.67
2019-03-18T02:29:51.352Z,3.37
2019-03-18T02:31:56.533Z,3.87
2019-03-18T02:34:01.524Z,3.80
2019-03-18T02:36:06.702Z,5.17
2019-03-18T02:38:11.572Z,4.23
2019-03-18T02:40:16.731Z,5.47
2019-03-18T02:42:22.734Z,3.90
2019-03-18T02:44:28.333Z,8.47
2019-03-18T02:46:33.564Z,5.60
2019-03-18T02:48:38.694Z,4.23
2019-03-18T02:50:43.589Z,3.93
2019-03-18T02:52:49.364Z,3.90
2019-03-18T02:54:54.952Z,4.97
2019-03-18T02:57:00.113Z,6.07
2019-03-18T02:59:05.748Z,4.13
2019-03-18T03:01:13.509Z,4.77
2019-03-18T03:03:19.327Z,4.13
2019-03-18T03:05:24.555Z,6.00
2019-03-18T03:07:30.005Z,5.80
2019-03-18T03:09:35.650Z,4.37
2019-03-18T03:11:40.919Z,3.70
2019-03-18T03:13:46.101Z,5.00
2019-03-18T03:15:51.569Z,4.93
2019-03-18T03:17:56.514Z,4.70
2019-03-18T03:20:01.756Z,3.97
2019-03-18T03:22:07.129Z,5.30
2019-03-18T03:24:12.223Z,6.43
2019-03-18T03:26:19.069Z,3.77
2019-03-18T03:28:25.722Z,3.97
2019-03-18T03:30:30.918Z,4.47
2019-03-18T03:32:35.847Z,6.87
2019-03-18T03:34:41.450Z,4.60
2019-03-18T03:36:46.667Z,4.30
2019-03-18T03:38:51.550Z,3.37
2019-03-18T03:40:56.679Z,3.70
2019-03-18T03:43:01.937Z,3.67
2019-03-18T03:45:07.578Z,3.67
2019-03-18T03:47:12.971Z,4.27
2019-03-18T03:49:18.663Z,4.40
2019-03-18T03:51:23.857Z,5.67
2019-03-18T03:53:30.889Z,3.83
2019-03-18T03:55:36.573Z,4.23
2019-03-18T03:57:42.604Z,5.07
2019-03-18T03:59:48.239Z,2.60
2019-03-18T04:01:53.995Z,2.67
2019-03-18T04:03:59.980Z,2.73
2019-03-18T04:06:05.178Z,2.87
2019-03-18T04:08:10.575Z,3.50
2019-03-18T04:10:16.008Z,3.13
2019-03-18T04:12:21.519Z,2.93
2019-03-18T04:14:26.405Z,2.20
2019-03-18T04:16:31.666Z,2.63
2019-03-18T04:18:36.539Z,2.50
2019-03-18T04:20:41.804Z,2.90
2019-03-18T04:22:46.822Z,2.33
2019-03-18T04:24:52.305Z,3.90
2019-03-18T04:26:57.539Z,4.17
2019-03-18T04:29:03.335Z,3.10
2019-03-18T04:31:08.934Z,3.17
2019-03-18T04:33:14.406Z,2.73
2019-03-18T04:35:19.668Z,2.20
2019-03-18T04:37:24.557Z,1.80
2019-03-18T04:39:30.107Z,1.77
2019-03-18T04:41:36.922Z,2.30
2019-03-18T04:43:42.276Z,1.87
2019-03-18T04:45:48.818Z,1.60
2019-03-18T04:47:53.782Z,1.80
2019-03-18T04:50:00.370Z,1.90
2019-03-18T04:52:05.625Z,1.80
2019-03-18T04:54:10.921Z,1.73
2019-03-18T04:56:16.113Z,1.80
2019-03-18T04:58:21.832Z,2.00
2019-03-18T05:00:27.067Z,1.70
2019-03-18T05:02:32.540Z,1.63
2019-03-18T05:04:37.815Z,1.97
2019-03-18T05:06:43.351Z,1.93
2019-03-18T05:08:48.812Z,2.67
2019-03-18T05:10:53.834Z,2.20
2019-03-18T05:12:58.983Z,2.77
2019-03-18T05:15:04.703Z,3.10
2019-03-18T05:17:09.661Z,3.83
2019-03-18T05:19:14.975Z,3.70
2019-03-18T05:21:20.164Z,3.60
2019-03-18T05:23:25.037Z,4.07
2019-03-18T05:25:30.854Z,3.87
2019-03-18T05:27:35.813Z,3.87
2019-03-18T05:29:41.165Z,4.10
2019-03-18T05:31:46.940Z,4.47
2019-03-18T05:33:52.606Z,4.00
2019-03-18T05:35:57.853Z,4.60
2019-03-18T05:38:03.436Z,3.87
2019-03-18T05:40:08.552Z,4.40
2019-03-18T05:42:13.824Z,5.23
2019-03-18T05:44:19.218Z,4.13
2019-03-18T05:46:25.014Z,7.33
2019-03-18T05:48:29.905Z,4.77
2019-03-18T05:50:34.788Z,4.50
2019-03-18T05:52:39.739Z,5.67
2019-03-18T05:54:48.641Z,4.40
2019-03-18T05:56:53.794Z,5.20
2019-03-18T05:58:58.966Z,7.57
2019-03-18T06:01:04.197Z,6.27
2019-03-18T06:03:09.068Z,6.37
2019-03-18T06:05:14.039Z,7.27
2019-03-18T06:07:18.937Z,6.83
2019-03-18T06:09:24.080Z,6.33
2019-03-18T06:11:29.496Z,6.40
2019-03-18T06:13:34.711Z,6.10
2019-03-18T06:15:39.627Z,5.90
2019-03-18T06:17:52.291Z,6.60
2019-03-18T06:19:51.839Z,6.60
2019-03-18T06:21:57.594Z,7.43
2019-03-18T06:24:02.988Z,7.63
2019-03-18T06:26:08.071Z,7.30
2019-03-18T06:28:13.166Z,6.70
2019-03-18T06:30:18.505Z,8.83
2019-03-18T06:32:23.780Z,6.37
2019-03-18T06:34:28.754Z,8.40
2019-03-18T06:36:34.057Z,7.03
2019-03-18T06:38:39.710Z,5.13
2019-03-18T06:40:44.638Z,4.93
2019-03-18T06:42:50.238Z,4.53
2019-03-18T06:44:55.385Z,4.80
2019-03-18T06:47:00.693Z,4.97
2019-03-18T06:49:06.239Z,4.80
2019-03-18T06:51:11.471Z,4.60
2019-03-18T06:53:16.713Z,5.53
2019-03-18T06:55:21.680Z,4.90
2019-03-18T06:57:27.231Z,5.17
2019-03-18T06:59:32.177Z,5.47
2019-03-18T07:01:37.677Z,6.07
2019-03-18T07:03:43.620Z,7.37
2019-03-18T07:05:49.419Z,8.57
2019-03-18T07:07:54.976Z,7.83
2019-03-18T07:10:00.833Z,8.53
2019-03-18T07:12:06.934Z,8.77
2019-03-18T07:14:13.328Z,8.57
2019-03-18T07:16:19.651Z,9.27
2019-03-18T07:18:25.730Z,8.70
2019-03-18T07:20:31.212Z,10.77
2019-03-18T07:22:36.404Z,8.43
2019-03-18T07:24:41.294Z,11.97
2019-03-18T07:26:46.568Z,10.77
2019-03-18T07:28:52.415Z,9.27
2019-03-18T07:30:57.662Z,9.53
2019-03-18T07:33:03.327Z,13.63
2019-03-18T07:35:08.760Z,12.83
2019-03-18T07:37:13.970Z,11.93
2019-03-18T07:39:19.660Z,9.80
2019-03-18T07:41:26.097Z,10.83
2019-03-18T07:43:32.133Z,13.60
2019-03-18T07:45:37.005Z,10.83
2019-03-18T07:47:43.561Z,9.27
2019-03-18T07:49:49.405Z,8.93
2019-03-18T07:51:55.122Z,9.33
2019-03-18T07:54:00.587Z,9.13
2019-03-18T07:56:06.575Z,11.80
2019-03-18T07:58:12.564Z,8.43
2019-03-18T08:00:17.708Z,10.83
2019-03-18T08:02:22.632Z,7.73
2019-03-18T08:04:37.426Z,10.73
2019-03-18T08:06:35.339Z,11.00
2019-03-18T08:08:40.961Z,7.47
2019-03-18T08:10:46.916Z,10.60
2019-03-18T08:12:52.217Z,6.83
2019-03-18T08:14:57.094Z,9.20
2019-03-18T08:17:02.086Z,8.13
2019-03-18T08:19:08.955Z,6.30
2019-03-18T08:21:13.808Z,7.87
2019-03-18T08:23:19.277Z,6.70
2019-03-18T08:25:24.770Z,6.27
2019-03-18T08:27:29.951Z,5.87
2019-03-18T08:29:35.151Z,6.50
2019-03-18T08:31:40.419Z,6.30
2019-03-18T08:33:45.670Z,6.20
2019-03-18T08:35:51.353Z,8.43
2019-03-18T08:37:56.795Z,8.77
2019-03-18T08:40:01.787Z,6.20
2019-03-18T08:42:07.203Z,6.93
2019-03-18T08:44:13.041Z,8.73
2019-03-18T08:46:18.205Z,9.47
2019-03-18T08:48:23.693Z,7.43
2019-03-18T08:50:29.650Z,9.20
2019-03-18T08:52:34.923Z,10.90
2019-03-18T08:54:40.069Z,8.87
2019-03-18T08:56:45.215Z,6.93
2019-03-18T08:58:50.194Z,9.80
2019-03-18T09:00:55.621Z,8.47
2019-03-18T09:03:00.716Z,6.07
2019-03-18T09:05:06.273Z,9.70
2019-03-18T09:07:11.782Z,8.50
2019-03-18T09:09:17.391Z,11.57
2019-03-18T09:11:22.430Z,7.30
2019-03-18T09:13:28.035Z,8.07
2019-03-18T09:15:33.266Z,10.63
2019-03-18T09:17:38.495Z,9.03
2019-03-18T09:19:43.387Z,11.03
2019-03-18T09:21:48.700Z,7.17
2019-03-18T09:23:53.891Z,9.20
2019-03-18T09:25:59.112Z,8.27
2019-03-18T09:28:04.899Z,12.00
2019-03-18T09:30:12.060Z,5.97
2019-03-18T09:32:16.941Z,7.23
2019-03-18T09:34:22.532Z,7.60
2019-03-18T09:36:27.513Z,11.77
2019-03-18T09:38:32.715Z,9.60
2019-03-18T09:40:37.926Z,8.93
2019-03-18T09:42:42.921Z,8.20
2019-03-18T09:44:48.155Z,9.07
2019-03-18T09:46:53.281Z,7.03
2019-03-18T09:48:58.169Z,7.73
2019-03-18T09:51:03.715Z,7.67
2019-03-18T09:53:09.175Z,7.60
2019-03-18T09:55:14.272Z,8.40
2019-03-18T09:57:25.876Z,10.10
2019-03-18T09:59:25.770Z,9.90
2019-03-18T10:01:31.184Z,10.03
2019-03-18T10:03:36.631Z,6.47
2019-03-18T10:05:43.869Z,8.53
2019-03-18T10:07:48.538Z,9.30
2019-03-18T10:09:53.783Z,13.97
2019-03-18T10:11:58.674Z,9.90
2019-03-18T10:14:03.982Z,4.13
2019-03-18T10:16:08.955Z,6.97
2019-03-18T10:18:14.515Z,5.50
2019-03-18T10:20:19.598Z,5.07
2019-03-18T10:22:25.108Z,5.40
2019-03-18T10:24:30.451Z,7.37
2019-03-18T10:26:35.679Z,8.83
2019-03-18T10:28:40.923Z,7.33
2019-03-18T10:30:45.935Z,8.40
2019-03-18T10:32:50.833Z,6.67
2019-03-18T10:34:56.446Z,9.33
2019-03-18T10:37:01.685Z,11.13
2019-03-18T10:39:08.905Z,9.90
2019-03-18T10:41:13.777Z,6.77
2019-03-18T10:43:18.990Z,10.97
2019-03-18T10:45:25.989Z,9.80
2019-03-18T10:47:32.278Z,6.00
2019-03-18T10:49:46.142Z,6.97
2019-03-18T10:51:43.859Z,10.03
2019-03-18T10:53:49.080Z,10.17
2019-03-18T10:55:54.058Z,6.50
2019-03-18T10:57:59.567Z,7.87
2019-03-18T11:00:05.845Z,5.13
2019-03-18T11:02:11.179Z,6.57
2019-03-18T11:04:16.396Z,7.07
2019-03-18T11:06:21.934Z,7.53
2019-03-18T11:08:27.251Z,9.57
2019-03-18T11:10:32.441Z,7.17
2019-03-18T11:12:37.697Z,8.43
2019-03-18T11:14:43.367Z,7.70
2019-03-18T11:16:48.272Z,7.37
2019-03-18T11:18:53.869Z,6.20
2019-03-18T11:20:59.128Z,8.33
2019-03-18T11:23:04.381Z,7.00
2019-03-18T11:25:10.142Z,5.87
2019-03-18T11:27:15.302Z,5.20
2019-03-18T11:29:21.273Z,6.97
2019-03-18T11:31:27.138Z,9.73
2019-03-18T11:33:32.756Z,7.30
2019-03-18T11:35:38.209Z,9.40
2019-03-18T11:37:44.047Z,7.60
2019-03-18T11:39:49.751Z,6.30
2019-03-18T11:41:54.698Z,6.20
2019-03-18T11:43:59.764Z,5.03
2019-03-18T11:46:04.845Z,4.00
2019-03-18T11:48:10.168Z,3.77
2019-03-18T11:50:15.771Z,4.30
2019-03-18T11:52:21.394Z,2.53
2019-03-18T11:54:26.447Z,3.30
2019-03-18T11:56:31.648Z,4.90
2019-03-18T11:58:36.697Z,2.87
2019-03-18T12:00:41.792Z,3.40
2019-03-18T12:02:47.154Z,4.07
2019-03-18T12:04:53.219Z,3.43
2019-03-18T12:06:58.737Z,6.50
2019-03-18T12:09:04.546Z,6.17
2019-03-18T12:11:09.774Z,7.07
2019-03-18T12:13:15.232Z,5.30
2019-03-18T12:15:21.672Z,4.37
2019-03-18T12:17:28.500Z,7.17
2019-03-18T12:19:33.611Z,6.03
2019-03-18T12:21:39.011Z,2.70
2019-03-18T12:23:44.467Z,5.17
2019-03-18T12:25:49.965Z,9.87
2019-03-18T12:27:55.826Z,6.23
2019-03-18T12:30:01.275Z,10.60
2019-03-18T12:32:06.667Z,7.80
2019-03-18T12:34:12.010Z,5.10
2019-03-18T12:36:17.530Z,6.93
2019-03-18T12:38:22.566Z,7.47
2019-03-18T12:40:28.386Z,7.00
2019-03-18T12:42:33.920Z,6.73
2019-03-18T12:44:39.067Z,6.07
2019-03-18T12:46:44.207Z,10.60
2019-03-18T12:48:49.595Z,7.80
2019-03-18T12:50:56.564Z,6.60
2019-03-18T12:53:02.052Z,3.53
2019-03-18T12:55:07.417Z,6.03
2019-03-18T12:57:12.370Z,5.70
2019-03-18T12:59:17.606Z,3.20
2019-03-18T13:01:24.182Z,7.57
2019-03-18T13:03:29.064Z,7.33
2019-03-18T13:05:34.513Z,5.83
2019-03-18T13:07:39.743Z,5.90
2019-03-18T13:09:47.251Z,6.03
2019-03-18T13:11:52.612Z,3.80
2019-03-18T13:13:58.134Z,4.60
2019-03-18T13:16:03.790Z,4.60
2019-03-18T13:18:09.293Z,4.80
2019-03-18T13:20:15.182Z,3.77
2019-03-18T13:22:21.014Z,3.40
2019-03-18T13:24:26.515Z,4.13
2019-03-18T13:26:32.720Z,3.90
2019-03-18T13:28:37.599Z,4.27
2019-03-18T13:30:42.865Z,3.57
2019-03-18T13:32:48.444Z,4.33
2019-03-18T13:34:53.335Z,4.27
2019-03-18T13:36:58.371Z,3.30
2019-03-18T13:39:03.900Z,4.03
2019-03-18T13:41:09.490Z,4.20
2019-03-18T13:43:14.818Z,5.53
2019-03-18T13:45:19.909Z,4.10
2019-03-18T13:47:25.162Z,3.43
2019-03-18T13:49:30.781Z,3.77
2019-03-18T13:51:36.144Z,3.60
2019-03-18T13:53:41.309Z,5.13
2019-03-18T13:55:46.973Z,3.10
2019-03-18T13:57:52.248Z,5.90
2019-03-18T13:59:57.201Z,5.57
2019-03-18T14:02:02.537Z,4.23
2019-03-18T14:04:07.796Z,3.37
2019-03-18T14:06:12.757Z,6.10
2019-03-18T14:08:18.219Z,4.73
2019-03-18T14:10:23.568Z,2.63
2019-03-18T14:12:28.444Z,7.33
2019-03-18T14:14:34.298Z,9.33
2019-03-18T14:16:40.071Z,3.67
2019-03-18T14:18:45.244Z,3.47
2019-03-18T14:20:50.493Z,6.97
2019-03-18T14:22:55.516Z,6.37
2019-03-18T14:25:00.489Z,4.90
2019-03-18T14:27:05.537Z,3.43
2019-03-18T14:29:11.384Z,5.50
2019-03-18T14:31:17.128Z,5.23
2019-03-18T14:33:22.741Z,2.53
2019-03-18T14:35:28.165Z,3.10
2019-03-18T14:37:33.135Z,5.67
2019-03-18T14:39:38.566Z,5.23
2019-03-18T14:41:43.835Z,4.60
2019-03-18T14:43:48.771Z,4.20
2019-03-18T14:45:53.719Z,6.10
2019-03-18T14:47:58.895Z,5.13
2019-03-18T14:50:04.677Z,4.23
2019-03-18T14:52:10.549Z,3.97
2019-03-18T14:54:15.827Z,3.47
2019-03-18T14:56:20.774Z,3.67
2019-03-18T14:58:26.342Z,3.87
2019-03-18T15:00:31.367Z,7.83
2019-03-18T15:02:37.043Z,5.73
2019-03-18T15:04:42.308Z,4.37
2019-03-18T15:06:47.347Z,5.10
2019-03-18T15:08:52.886Z,4.23
2019-03-18T15:10:58.484Z,2.63
2019-03-18T15:13:05.796Z,3.33
2019-03-18T15:15:13.885Z,7.17
2019-03-18T15:17:20.679Z,5.40
2019-03-18T15:19:27.655Z,5.87
2019-03-18T15:21:33.325Z,6.63
2019-03-18T15:23:38.545Z,2.23
2019-03-18T15:25:43.920Z,4.13
2019-03-18T15:27:50.011Z,2.27
2019-03-18T15:29:55.190Z,4.87
2019-03-18T15:32:00.883Z,7.80
2019-03-18T15:34:05.857Z,5.30
2019-03-18T15:36:11.825Z,7.00
2019-03-18T15:38:17.655Z,5.63
2019-03-18T15:40:22.929Z,6.17
2019-03-18T15:42:28.443Z,3.10
2019-03-18T15:44:33.954Z,4.50
2019-03-18T15:46:38.850Z,3.13
2019-03-18T15:48:45.041Z,7.43
2019-03-18T15:50:49.930Z,5.20
2019-03-18T15:52:54.897Z,4.57
2019-03-18T15:55:00.162Z,5.57
2019-03-18T15:57:05.950Z,7.97
2019-03-18T15:59:11.791Z,2.63
2019-03-18T16:01:17.695Z,5.13
2019-03-18T16:03:22.948Z,5.80
2019-03-18T16:05:28.241Z,6.63
2019-03-18T16:07:33.479Z,4.43
2019-03-18T16:09:38.982Z,7.50
2019-03-18T16:11:44.228Z,4.60
2019-03-18T16:13:49.721Z,2.80
2019-03-18T16:15:54.979Z,5.27
2019-03-18T16:18:00.343Z,6.43
2019-03-18T16:20:06.822Z,5.53
2019-03-18T16:22:23.020Z,5.50
2019-03-18T16:24:19.192Z,5.67
2019-03-18T16:26:24.451Z,6.43
2019-03-18T16:28:29.991Z,7.20
2019-03-18T16:30:35.303Z,7.77
2019-03-18T16:32:40.278Z,6.27
2019-03-18T16:34:45.607Z,8.80
2019-03-18T16:36:50.522Z,6.90
2019-03-18T16:38:56.458Z,5.10
2019-03-18T16:41:03.404Z,7.33
2019-03-18T16:43:10.883Z,5.93
2019-03-18T16:45:16.031Z,5.23
2019-03-18T16:47:25.156Z,14.23
2019-03-18T16:49:30.338Z,6.07
2019-03-18T16:51:35.695Z,8.43
2019-03-18T16:53:40.657Z,3.67
2019-03-18T16:55:46.065Z,7.57
2019-03-18T16:57:51.093Z,6.73
2019-03-18T16:59:56.609Z,5.73
2019-03-18T17:02:02.389Z,5.03
2019-03-18T17:04:07.269Z,5.37
2019-03-18T17:06:12.641Z,4.60
2019-03-18T17:08:18.356Z,7.97
2019-03-18T17:10:23.496Z,8.03
2019-03-18T17:12:28.756Z,7.63
2019-03-18T17:14:35.031Z,6.57
2019-03-18T17:16:40.305Z,6.30
2019-03-18T17:18:46.166Z,7.10
2019-03-18T17:20:51.420Z,5.60
2019-03-18T17:22:57.972Z,3.97
2019-03-18T17:25:03.709Z,6.50
2019-03-18T17:27:09.850Z,6.87
2019-03-18T17:29:15.095Z,5.10
2019-03-18T17:31:20.561Z,3.90
2019-03-18T17:33:25.746Z,4.60
2019-03-18T17:35:31.327Z,5.73
2019-03-18T17:37:36.378Z,6.00
2019-03-18T17:39:41.295Z,5.67
2019-03-18T17:41:46.357Z,4.20
2019-03-18T17:43:51.701Z,3.63
2019-03-18T17:45:57.315Z,4.13
2019-03-18T17:48:02.541Z,4.40
2019-03-18T17:50:09.411Z,5.33
2019-03-18T17:52:14.692Z,6.07
2019-03-18T17:54:19.630Z,10.57
2019-03-18T17:56:30.265Z,4.30
2019-03-18T17:58:32.571Z,8.87
2019-03-18T18:00:41.826Z,4.07
2019-03-18T18:02:47.064Z,6.67
2019-03-18T18:05:02.489Z,6.30
2019-03-18T18:06:58.728Z,5.70
2019-03-18T18:09:05.738Z,7.30
2019-03-18T18:11:10.968Z,5.30
2019-03-18T18:13:16.285Z,9.13
2019-03-18T18:15:21.624Z,4.33
2019-03-18T18:17:27.750Z,7.37
2019-03-18T18:19:32.951Z,5.23
2019-03-18T18:21:38.404Z,8.23
2019-03-18T18:23:44.786Z,6.30
2019-03-18T18:25:50.058Z,4.77
2019-03-18T18:27:56.433Z,5.47
2019-03-18T18:30:02.685Z,7.70
2019-03-18T18:32:07.880Z,7.23
2019-03-18T18:34:13.125Z,7.13
2019-03-18T18:36:18.363Z,12.43
2019-03-18T18:38:24.012Z,18.80
2019-03-18T18:40:29.176Z,8.53
2019-03-18T18:42:34.400Z,9.70
2019-03-18T18:44:40.286Z,6.77
2019-03-18T18:46:46.196Z,9.07
2019-03-18T18:48:52.410Z,9.60
2019-03-18T18:50:57.816Z,9.80
2019-03-18T18:53:03.338Z,5.17
2019-03-18T18:55:09.111Z,5.93
2019-03-18T18:57:14.277Z,5.17
2019-03-18T18:59:19.863Z,4.17
2019-03-18T19:01:25.146Z,5.70
2019-03-18T19:03:30.436Z,5.73
2019-03-18T19:05:36.225Z,7.03
2019-03-18T19:07:41.282Z,5.57
2019-03-18T19:09:46.287Z,3.17
2019-03-18T19:11:51.424Z,5.40
2019-03-18T19:13:56.658Z,4.73
2019-03-18T19:16:01.886Z,5.57
2019-03-18T19:18:06.901Z,4.77
2019-03-18T19:20:12.158Z,4.10
2019-03-18T19:22:17.307Z,4.43
2019-03-18T19:24:22.587Z,3.57
2019-03-18T19:26:28.338Z,3.13
2019-03-18T19:28:34.240Z,3.97
2019-03-18T19:30:39.505Z,4.10
2019-03-18T19:32:45.229Z,3.07
2019-03-18T19:34:51.152Z,4.80
2019-03-18T19:36:56.286Z,5.27
2019-03-18T19:39:01.738Z,4.70
2019-03-18T19:41:07.001Z,6.27
2019-03-18T19:43:12.033Z,5.30
2019-03-18T19:45:17.701Z,9.07
2019-03-18T19:47:22.924Z,6.97
2019-03-18T19:49:27.841Z,5.03
2019-03-18T19:51:33.348Z,3.57
2019-03-18T19:53:48.623Z,5.37
2019-03-18T19:55:45.732Z,3.97
2019-03-18T19:57:51.906Z,7.13
2019-03-18T19:59:57.790Z,5.30
2019-03-18T20:02:02.988Z,3.87
2019-03-18T20:04:08.521Z,5.83
2019-03-18T20:06:13.783Z,3.60
2019-03-18T20:08:18.809Z,5.27
2019-03-18T20:10:23.979Z,4.43
2019-03-18T20:12:29.575Z,4.00
2019-03-18T20:14:35.081Z,3.77
2019-03-18T20:16:40.462Z,6.67
2019-03-18T20:18:45.925Z,7.87
2019-03-18T20:20:51.085Z,5.10
2019-03-18T20:22:56.061Z,5.10
2019-03-18T20:25:01.448Z,5.37
2019-03-18T20:27:06.420Z,5.27
2019-03-18T20:29:12.255Z,5.30
2019-03-18T20:31:25.691Z,5.53
2019-03-18T20:33:24.692Z,5.67
2019-03-18T20:35:29.603Z,7.27
2019-03-18T20:37:35.316Z,6.67
2019-03-18T20:39:40.279Z,6.47
2019-03-18T20:41:45.578Z,5.73
2019-03-18T20:43:51.150Z,6.40
2019-03-18T20:45:57.031Z,7.07
2019-03-18T20:48:02.256Z,8.27
2019-03-18T20:50:09.383Z,13.60
2019-03-18T20:52:17.074Z,18.17
2019-03-18T20:54:21.600Z,14.70
2019-03-18T20:56:27.154Z,11.97
2019-03-18T20:58:32.310Z,6.07
2019-03-18T21:00:38.028Z,9.55
2019-03-18T21:02:43.117Z,8.33
2019-03-18T21:04:48.276Z,6.77
2019-03-18T21:06:53.527Z,8.83
2019-03-18T21:08:58.483Z,6.23
2019-03-18T21:11:03.869Z,4.03
2019-03-18T21:13:09.727Z,6.70
2019-03-18T21:15:15.892Z,5.67
2019-03-18T21:17:21.096Z,7.23
2019-03-18T21:19:26.603Z,6.23
2019-03-18T21:21:32.056Z,6.07
2019-03-18T21:23:38.091Z,8.60
2019-03-18T21:25:43.509Z,7.23
2019-03-18T21:27:49.183Z,10.00
2019-03-18T21:29:54.731Z,3.47
2019-03-18T21:32:00.030Z,5.73
2019-03-18T21:34:05.631Z,7.40
2019-03-18T21:36:11.460Z,5.53
2019-03-18T21:38:16.629Z,6.43
2019-03-18T21:40:21.597Z,3.80
2019-03-18T21:42:27.284Z,5.33
2019-03-18T21:44:32.472Z,4.03
2019-03-18T21:46:38.042Z,6.20
2019-03-18T21:48:43.664Z,3.53
2019-03-18T21:50:48.587Z,6.63
2019-03-18T21:52:54.370Z,6.07
2019-03-18T21:54:59.688Z,4.00
2019-03-18T21:57:05.622Z,6.17
2019-03-18T21:59:10.566Z,5.27
2019-03-18T22:01:15.995Z,5.70
2019-03-18T22:03:21.751Z,5.07
2019-03-18T22:05:27.257Z,5.47
2019-03-18T22:07:32.609Z,5.47
2019-03-18T22:09:37.528Z,4.63
2019-03-18T22:11:42.569Z,5.20
2019-03-18T22:13:48.356Z,7.67
2019-03-18T22:15:54.241Z,6.10
2019-03-18T22:17:59.962Z,8.33
2019-03-18T22:20:06.684Z,3.83
2019-03-18T22:22:12.412Z,3.73
2019-03-18T22:24:17.818Z,6.20
2019-03-18T22:26:22.969Z,5.03
2019-03-18T22:28:28.238Z,4.33
2019-03-18T22:30:33.999Z,5.97
2019-03-18T22:32:39.755Z,5.53
2019-03-18T22:34:44.655Z,5.43
2019-03-18T22:36:49.886Z,5.63
2019-03-18T22:38:55.732Z,4.53
2019-03-18T22:41:00.789Z,4.27
2019-03-18T22:43:06.241Z,5.83
2019-03-18T22:45:11.799Z,4.97
2019-03-18T22:47:17.085Z,6.20
2019-03-18T22:49:22.415Z,4.33
2019-03-18T22:51:27.771Z,5.63
2019-03-18T22:53:33.024Z,4.23
2019-03-18T22:55:38.303Z,5.93
2019-03-18T22:57:43.980Z,5.00
2019-03-18T22:59:49.120Z,5.30
2019-03-18T23:01:54.350Z,6.93
2019-03-18T23:03:59.532Z,3.43
2019-03-18T23:06:05.177Z,5.67
2019-03-18T23:08:10.717Z,4.73
2019-03-18T23:10:16.041Z,2.93
2019-03-18T23:12:20.918Z,7.57
2019-03-18T23:14:25.947Z,6.80
2019-03-18T23:16:31.155Z,4.97
2019-03-18T23:18:36.179Z,5.93
2019-03-18T23:20:41.400Z,6.03
2019-03-18T23:22:46.292Z,7.33
2019-03-18T23:24:51.552Z,6.00
2019-03-18T23:26:56.583Z,4.67
2019-03-18T23:29:01.986Z,5.70
2019-03-18T23:31:06.969Z,7.27
2019-03-18T23:33:11.879Z,4.33
2019-03-18T23:35:17.465Z,5.60
2019-03-18T23:37:23.305Z,7.23
2019-03-18T23:39:29.167Z,7.30
2019-03-18T23:41:34.616Z,5.97
2019-03-18T23:43:40.182Z,5.83
2019-03-18T23:45:45.477Z,7.50
2019-03-18T23:47:51.651Z,3.57
2019-03-18T23:49:56.624Z,6.47
2019-03-18T23:52:02.043Z,5.70
2019-03-18T23:54:07.443Z,6.93
2019-03-18T23:56:12.326Z,3.70
2019-03-18T23:58:17.561Z,9.33
